Time;durP1;ratioP1;P1;durP2;ratioP2;P2;SDS_P1;SDS_P2;PMS_P1;PMS_P2;Temp;Humidity;BMP_temperature;BMP_pressure;BME280_temperature;BME280_humidity;BME280_pressure;Samples;Min_cycle;Max_cycle;Signal;HPM_P1;HPM_P2
2023/01/24 00:00:43;;;;;;;4.78;3.60;;;5.80;96.70;;;;;;4952966;28;20047;-78
2023/01/24 00:03:13;;;;;;;5.65;3.90;;;5.90;96.70;;;;;;4964729;28;20043;-78
2023/01/24 00:05:47;;;;;;;4.70;3.70;;;5.90;96.70;;;;;;4961674;28;20425;-78
2023/01/24 00:08:20;;;;;;;4.75;3.47;;;5.80;96.70;;;;;;4946212;28;20094;-78
2023/01/24 00:10:59;;;;;;;3.95;3.13;;;5.80;96.70;;;;;;4956257;28;20054;-79
2023/01/24 00:13:31;;;;;;;5.47;3.45;;;5.80;96.70;;;;;;4950000;28;20098;-79
2023/01/24 00:16:06;;;;;;;5.13;3.38;;;5.80;96.70;;;;;;4959983;28;20047;-78
2023/01/24 00:18:37;;;;;;;4.70;3.10;;;5.70;96.70;;;;;;4949105;28;20043;-79
2023/01/24 00:21:12;;;;;;;3.72;2.95;;;5.80;96.70;;;;;;4954083;28;20035;-79
2023/01/24 00:23:45;;;;;;;5.75;3.42;;;5.80;96.70;;;;;;4958980;28;20058;-78
2023/01/24 00:26:19;;;;;;;3.38;2.92;;;5.70;96.70;;;;;;4961202;28;20070;-78
2023/01/24 00:28:50;;;;;;;4.90;3.17;;;5.70;96.70;;;;;;4964776;28;20047;-78
2023/01/24 00:31:21;;;;;;;3.45;2.90;;;5.70;96.70;;;;;;4963312;28;20050;-78
2023/01/24 00:33:51;;;;;;;4.55;3.10;;;5.70;96.70;;;;;;4954318;28;20047;-78
2023/01/24 00:36:21;;;;;;;4.22;3.20;;;5.70;96.70;;;;;;4954089;28;20050;-78
2023/01/24 00:38:52;;;;;;;4.15;3.00;;;5.60;96.70;;;;;;4956857;28;20043;-79
2023/01/24 00:41:28;;;;;;;3.97;2.95;;;5.60;96.70;;;;;;4955731;28;20055;-79
2023/01/24 00:43:59;;;;;;;5.10;2.75;;;5.70;96.70;;;;;;4966321;28;20046;-77
2023/01/24 00:46:29;;;;;;;4.80;2.95;;;5.60;96.70;;;;;;4956209;28;20050;-79
2023/01/24 00:49:00;;;;;;;4.28;2.67;;;5.60;96.70;;;;;;4960489;28;20051;-78
2023/01/24 00:51:30;;;;;;;3.95;2.80;;;5.60;96.70;;;;;;4953024;28;20069;-79
2023/01/24 00:54:00;;;;;;;4.00;2.63;;;5.60;96.70;;;;;;4945209;28;20121;-80
2023/01/24 00:56:32;;;;;;;3.50;2.90;;;5.60;96.70;;;;;;4946211;28;20413;-79
2023/01/24 00:59:01;;;;;;;3.85;2.67;;;5.60;96.70;;;;;;4955461;28;20086;-79
2023/01/24 01:01:30;;;;;;;3.17;2.25;;;5.60;96.70;;;;;;4960128;28;20529;-78
2023/01/24 01:04:00;;;;;;;4.28;2.90;;;5.60;96.70;;;;;;4950102;28;20764;-79
2023/01/24 01:06:30;;;;;;;3.80;2.95;;;5.50;96.70;;;;;;4953358;28;20051;-79
2023/01/24 01:09:01;;;;;;;3.65;2.65;;;5.50;96.70;;;;;;4953958;28;20046;-78
2023/01/24 01:11:34;;;;;;;2.58;2.38;;;5.50;96.70;;;;;;4954289;28;20051;-79
2023/01/24 01:14:04;;;;;;;3.55;2.40;;;5.50;96.70;;;;;;4949963;28;20494;-78
2023/01/24 01:16:37;;;;;;;3.30;2.65;;;5.40;96.70;;;;;;4956498;28;20051;-78
2023/01/24 01:19:15;;;;;;;3.95;2.60;;;5.40;96.70;;;;;;4977387;28;20417;-78
2023/01/24 01:21:44;;;;;;;4.22;2.63;;;5.40;96.70;;;;;;4950902;28;20039;-78
2023/01/24 01:24:12;;;;;;;3.35;2.50;;;5.40;96.70;;;;;;4948628;28;20063;-79
2023/01/24 01:26:41;;;;;;;4.20;2.95;;;5.40;96.70;;;;;;4959465;28;20054;-78
2023/01/24 01:29:09;;;;;;;3.33;2.63;;;5.40;96.70;;;;;;4962260;28;20065;-78
2023/01/24 01:31:37;;;;;;;2.90;2.28;;;5.40;96.70;;;;;;4960865;28;20052;-78
2023/01/24 01:34:05;;;;;;;3.60;2.75;;;5.40;96.70;;;;;;4958123;28;20058;-78
2023/01/24 01:36:34;;;;;;;3.55;2.50;;;5.40;96.70;;;;;;4941645;28;20091;-78
2023/01/24 01:39:07;;;;;;;3.20;2.40;;;5.40;96.70;;;;;;4961092;28;20049;-74
2023/01/24 01:41:36;;;;;;;2.67;2.00;;;5.30;96.70;;;;;;4953202;28;20054;-74
2023/01/24 01:44:40;;;;;;;3.45;2.53;;;5.30;96.70;;;;;;4964140;28;20457;-74
2023/01/24 01:47:23;;;;;;;3.30;2.40;;;5.20;96.70;;;;;;4958865;28;20050;-74
2023/01/24 01:49:58;;;;;;;2.90;2.60;;;5.20;96.70;;;;;;4963984;28;20441;-73
2023/01/24 01:52:32;;;;;;;3.03;2.17;;;5.20;96.70;;;;;;4956267;28;20488;-74
2023/01/24 01:55:05;;;;;;;2.47;2.25;;;5.10;96.70;;;;;;4965012;28;20058;-74
2023/01/24 01:57:35;;;;;;;5.40;2.33;;;5.10;96.70;;;;;;4948974;28;20050;-75
2023/01/24 02:00:11;;;;;;;3.92;2.42;;;5.10;96.70;;;;;;4965089;28;20551;-74
2023/01/24 02:02:43;;;;;;;4.18;2.83;;;5.10;96.70;;;;;;4964131;28;20059;-74
2023/01/24 02:05:15;;;;;;;3.83;2.28;;;5.10;96.70;;;;;;4965904;28;20078;-74
2023/01/24 02:07:47;;;;;;;4.72;2.85;;;5.00;96.70;;;;;;4965133;28;20046;-74
2023/01/24 02:10:17;;;;;;;4.43;2.53;;;5.00;96.70;;;;;;4966177;28;20050;-74
2023/01/24 02:12:47;;;;;;;4.53;2.97;;;5.00;96.70;;;;;;4959234;28;20047;-75
2023/01/24 02:18:07;;;;;;;4.03;2.97;;;5.00;96.70;;;;;;4964575;28;20121;-74
2023/01/24 02:20:39;;;;;;;4.22;2.58;;;5.00;96.70;;;;;;4962375;28;20055;-75
2023/01/24 02:23:17;;;;;;;3.13;2.05;;;5.00;96.70;;;;;;4961186;28;20047;-74
2023/01/24 02:25:50;;;;;;;2.38;2.10;;;5.00;96.70;;;;;;4978532;28;20042;-74
2023/01/24 02:28:20;;;;;;;4.35;2.13;;;5.00;96.70;;;;;;4955133;28;20047;-74
2023/01/24 02:30:48;;;;;;;3.72;1.75;;;4.90;96.70;;;;;;4947251;28;20050;-74
2023/01/24 02:33:18;;;;;;;2.28;2.00;;;4.90;96.70;;;;;;4948914;28;20118;-74
2023/01/24 02:35:47;;;;;;;1.90;1.70;;;4.90;96.70;;;;;;4970474;28;20398;-74
2023/01/24 02:38:19;;;;;;;1.85;1.55;;;4.90;96.70;;;;;;4950060;28;20118;-75
2023/01/24 02:40:52;;;;;;;3.08;2.00;;;4.90;96.70;;;;;;4954024;28;20051;-74
2023/01/24 02:43:26;;;;;;;3.05;2.15;;;4.90;96.70;;;;;;4953046;28;20055;-74
2023/01/24 02:45:55;;;;;;;3.05;2.03;;;4.90;96.70;;;;;;4949987;28;20612;-74
2023/01/24 02:48:23;;;;;;;2.70;1.80;;;4.90;96.70;;;;;;4954950;28;20070;-74
2023/01/24 02:53:39;;;;;;;3.28;2.15;;;4.90;96.70;;;;;;4975286;28;20055;-74
2023/01/24 02:58:58;;;;;;;2.40;1.70;;;4.80;96.70;;;;;;4963227;28;20834;-73
2023/01/24 03:01:29;;;;;;;2.42;1.70;;;4.80;96.70;;;;;;4977490;28;20051;-74
2023/01/24 03:03:58;;;;;;;1.95;1.45;;;4.80;96.70;;;;;;4964465;28;20129;-74
2023/01/24 03:06:26;;;;;;;2.92;2.25;;;4.80;96.70;;;;;;4957530;28;20054;-74
2023/01/24 03:08:55;;;;;;;2.53;1.95;;;4.70;96.70;;;;;;4951016;28;20057;-74
2023/01/24 03:11:29;;;;;;;2.67;1.80;;;4.70;96.70;;;;;;4937454;28;20055;-75
2023/01/24 03:36:31;;;;;;;1.90;1.60;;;4.70;96.70;;;;;;4956966;28;20895;-74
2023/01/24 03:41:48;;;;;;;1.77;1.33;;;4.70;96.70;;;;;;4956053;28;20142;-74
2023/01/24 03:44:16;;;;;;;3.08;1.45;;;4.70;96.70;;;;;;4945408;28;20039;-74
2023/01/24 03:46:47;;;;;;;3.67;1.70;;;4.70;96.70;;;;;;4952191;28;20054;-74
2023/01/24 03:49:16;;;;;;;2.28;1.70;;;4.70;96.70;;;;;;4947751;28;20137;-74
2023/01/24 03:54:31;;;;;;;2.47;1.67;;;4.60;96.70;;;;;;4954697;28;20051;-74
2023/01/24 03:57:04;;;;;;;2.80;1.83;;;4.60;96.70;;;;;;4952256;28;20047;-75
2023/01/24 03:59:32;;;;;;;2.97;1.80;;;4.60;96.70;;;;;;4968067;28;20075;-74
2023/01/24 04:02:02;;;;;;;3.10;1.65;;;4.60;96.70;;;;;;4962749;28;20286;-74
2023/01/24 04:07:22;;;;;;;2.20;1.58;;;4.50;96.70;;;;;;4943937;28;20471;-74
2023/01/24 04:10:01;;;;;;;1.75;1.60;;;4.50;96.70;;;;;;4947362;28;20137;-74
2023/01/24 04:12:36;;;;;;;2.20;1.75;;;4.50;96.70;;;;;;4953365;28;20050;-74
2023/01/24 04:15:05;;;;;;;2.45;1.90;;;4.40;96.70;;;;;;4949674;28;20066;-74
2023/01/24 04:17:35;;;;;;;2.60;1.90;;;4.40;96.70;;;;;;4959399;28;20050;-74
2023/01/24 04:20:08;;;;;;;2.47;1.95;;;4.50;96.70;;;;;;4963899;28;20101;-74
2023/01/24 04:22:36;;;;;;;2.35;1.88;;;4.50;96.70;;;;;;4956096;28;20051;-74
2023/01/24 04:25:05;;;;;;;2.88;2.10;;;4.50;96.70;;;;;;4959371;28;20038;-74
2023/01/24 04:27:34;;;;;;;3.42;2.25;;;4.40;96.70;;;;;;4977019;28;20051;-75
2023/01/24 04:30:12;;;;;;;3.42;1.88;;;4.50;96.70;;;;;;4944794;28;20687;-74
2023/01/24 04:32:43;;;;;;;2.90;1.60;;;4.50;96.70;;;;;;4954726;28;20109;-78
2023/01/24 04:35:17;;;;;;;3.90;2.15;;;4.50;96.70;;;;;;4943255;28;20035;-79
2023/01/24 04:37:58;;;;;;;3.05;2.40;;;4.50;96.70;;;;;;4956099;28;20403;-78
2023/01/24 04:40:40;;;;;;;3.55;2.00;;;4.40;96.70;;;;;;4957775;28;20597;-79
2023/01/24 04:43:08;;;;;;;1.77;1.60;;;4.40;96.70;;;;;;4956061;28;20054;-78
2023/01/24 04:45:38;;;;;;;2.38;1.52;;;4.40;96.70;;;;;;4963031;28;20067;-77
2023/01/24 04:48:10;;;;;;;2.25;1.50;;;4.30;96.70;;;;;;4973961;28;20121;-79
2023/01/24 04:50:39;;;;;;;3.63;1.80;;;4.30;96.70;;;;;;4957317;28;20142;-79
2023/01/24 04:53:08;;;;;;;2.05;1.77;;;4.30;96.70;;;;;;4961616;28;20492;-78
2023/01/24 04:55:36;;;;;;;2.90;1.83;;;4.30;96.70;;;;;;4968330;28;20055;-79
2023/01/24 04:58:04;;;;;;;1.67;1.38;;;4.20;96.70;;;;;;4954671;28;20094;-78
2023/01/24 05:00:33;;;;;;;3.88;1.50;;;4.30;96.70;;;;;;4953450;28;20146;-78
2023/01/24 05:03:02;;;;;;;2.67;1.70;;;4.30;96.70;;;;;;4956744;28;20043;-79
2023/01/24 05:05:32;;;;;;;2.85;1.85;;;4.20;96.70;;;;;;4962910;28;20055;-77
2023/01/24 05:08:00;;;;;;;2.42;1.73;;;4.20;96.70;;;;;;4966628;28;20038;-79
2023/01/24 05:10:28;;;;;;;2.47;1.77;;;4.20;96.70;;;;;;4975869;28;20446;-80
2023/01/24 05:12:57;;;;;;;1.95;1.65;;;4.20;96.70;;;;;;4944093;28;20054;-79
2023/01/24 05:15:26;;;;;;;2.45;1.75;;;3.90;96.70;;;;;;4956079;28;20062;-79
2023/01/24 05:17:58;;;;;;;2.55;1.80;;;3.70;96.70;;;;;;4961713;28;20389;-77
2023/01/24 05:20:27;;;;;;;1.90;1.50;;;3.90;96.70;;;;;;4944986;28;20051;-79
2023/01/24 05:22:58;;;;;;;2.42;1.80;;;3.90;96.70;;;;;;4943435;28;20066;-78
2023/01/24 05:25:28;;;;;;;3.20;1.80;;;4.00;96.70;;;;;;4967894;28;20079;-78
2023/01/24 05:27:57;;;;;;;3.50;1.90;;;4.10;96.70;;;;;;4959338;28;20097;-79
2023/01/24 05:30:26;;;;;;;2.63;1.80;;;4.10;96.70;;;;;;4954055;28;20074;-78
2023/01/24 05:33:00;;;;;;;2.28;1.70;;;4.10;96.70;;;;;;4954271;28;20046;-78
2023/01/24 05:35:28;;;;;;;3.10;1.75;;;4.10;96.70;;;;;;4945786;28;20130;-77
2023/01/24 05:37:59;;;;;;;3.15;1.90;;;4.10;96.70;;;;;;4953777;28;20101;-78
2023/01/24 05:40:27;;;;;;;3.15;1.70;;;4.10;96.70;;;;;;4977732;28;20058;-78
2023/01/24 05:42:56;;;;;;;3.17;1.90;;;4.10;96.70;;;;;;4936999;28;20054;-77
2023/01/24 05:45:24;;;;;;;3.03;2.00;;;4.20;96.70;;;;;;4945949;28;20050;-77
2023/01/24 05:47:55;;;;;;;2.55;1.98;;;4.10;96.70;;;;;;4953705;28;20101;-78
2023/01/24 05:50:23;;;;;;;2.47;1.73;;;4.10;96.70;;;;;;4956898;28;20051;-76
2023/01/24 05:53:13;;;;;;;3.08;1.98;;;4.00;96.70;;;;;;4963435;28;20053;-78
2023/01/24 05:55:41;;;;;;;2.63;2.10;;;4.00;96.70;;;;;;4963677;28;20043;-77
2023/01/24 05:58:09;;;;;;;2.95;2.30;;;4.00;96.70;;;;;;4951342;28;20047;-78
2023/01/24 06:00:53;;;;;;;2.70;1.80;;;4.00;96.70;;;;;;4954857;28;20046;-78
2023/01/24 06:03:37;;;;;;;3.05;2.08;;;4.00;96.70;;;;;;4962038;28;20047;-78
2023/01/24 06:06:07;;;;;;;2.60;1.98;;;4.00;96.70;;;;;;4975160;28;20508;-78
2023/01/24 06:08:37;;;;;;;3.08;2.10;;;3.90;96.70;;;;;;4955108;28;20038;-78
2023/01/24 06:11:13;;;;;;;2.97;2.03;;;3.90;96.70;;;;;;4945210;28;20609;-78
2023/01/24 06:13:41;;;;;;;2.28;1.70;;;3.90;96.70;;;;;;4958374;28;20051;-76
2023/01/24 06:16:13;;;;;;;2.55;1.55;;;3.90;96.70;;;;;;4943293;28;20086;-78
2023/01/24 06:18:42;;;;;;;3.10;1.92;;;4.00;96.70;;;;;;4961944;28;20058;-78
2023/01/24 06:21:22;;;;;;;3.15;1.98;;;4.00;96.70;;;;;;4960126;28;20335;-78
2023/01/24 06:23:54;;;;;;;3.25;2.17;;;4.00;96.70;;;;;;4954901;28;20114;-79
2023/01/24 06:26:28;;;;;;;3.28;2.00;;;4.00;96.70;;;;;;4948231;28;20047;-78
2023/01/24 06:28:58;;;;;;;2.00;1.80;;;4.00;96.70;;;;;;4977445;28;20050;-77
2023/01/24 06:31:35;;;;;;;2.85;1.70;;;4.00;96.70;;;;;;4978933;28;20061;-76
2023/01/24 06:34:18;;;;;;;3.38;2.20;;;4.00;96.70;;;;;;4974982;28;20057;-77
2023/01/24 06:36:56;;;;;;;3.70;2.35;;;3.90;96.70;;;;;;4956475;28;20042;-76
2023/01/24 06:39:27;;;;;;;3.03;2.50;;;4.00;96.70;;;;;;4954790;28;20039;-78
2023/01/24 06:41:56;;;;;;;2.65;2.03;;;3.90;96.70;;;;;;4965875;28;20109;-78
2023/01/24 06:44:24;;;;;;;3.58;2.55;;;3.90;96.70;;;;;;4980713;28;20042;-77
2023/01/24 06:46:52;;;;;;;3.05;2.53;;;4.00;96.70;;;;;;4949588;28;20051;-77
2023/01/24 06:49:21;;;;;;;4.30;3.13;;;4.00;96.70;;;;;;4954927;28;20054;-77
2023/01/24 06:51:52;;;;;;;3.03;2.33;;;4.00;96.70;;;;;;4957016;28;20046;-77
2023/01/24 06:54:20;;;;;;;3.00;2.55;;;4.00;96.70;;;;;;4954822;28;20510;-78
2023/01/24 06:56:49;;;;;;;4.13;3.08;;;4.00;96.70;;;;;;4956529;28;20058;-78
2023/01/24 06:59:19;;;;;;;3.40;2.80;;;4.00;96.70;;;;;;4979373;28;20070;-77
2023/01/24 07:01:47;;;;;;;5.22;3.22;;;4.10;96.70;;;;;;4956725;28;20106;-78
2023/01/24 07:04:15;;;;;;;4.78;3.45;;;4.10;96.70;;;;;;4964865;28;20702;-77
2023/01/24 07:06:44;;;;;;;4.65;3.30;;;4.10;96.70;;;;;;4962790;28;20051;-77
2023/01/24 07:09:12;;;;;;;4.85;3.30;;;4.00;96.70;;;;;;4957952;28;20047;-78
2023/01/24 07:11:40;;;;;;;4.35;3.03;;;4.00;96.70;;;;;;4947532;28;20134;-76
2023/01/24 07:14:09;;;;;;;4.72;3.22;;;4.00;96.70;;;;;;4956277;28;20067;-79
2023/01/24 07:16:37;;;;;;;6.38;4.65;;;4.00;96.70;;;;;;4983049;28;20051;-76
2023/01/24 07:19:07;;;;;;;8.38;5.18;;;4.00;96.70;;;;;;4946580;28;20058;-77
2023/01/24 07:21:39;;;;;;;7.30;5.43;;;4.00;96.70;;;;;;4953025;28;20066;-79
2023/01/24 07:24:12;;;;;;;7.85;5.90;;;4.00;96.70;;;;;;4956073;28;20059;-77
2023/01/24 07:26:40;;;;;;;9.38;6.28;;;4.10;96.70;;;;;;4957867;28;20137;-77
2023/01/24 07:29:11;;;;;;;8.60;5.28;;;4.10;96.70;;;;;;4960764;28;20450;-77
2023/01/24 07:31:39;;;;;;;9.60;4.90;;;4.10;96.70;;;;;;4958860;28;20402;-78
2023/01/24 07:34:07;;;;;;;6.50;4.68;;;4.10;96.70;;;;;;4961208;28;20039;-77
2023/01/24 07:36:35;;;;;;;7.13;4.72;;;4.20;96.70;;;;;;4953000;28;20050;-77
2023/01/24 07:39:03;;;;;;;5.82;4.13;;;4.30;96.70;;;;;;4959440;28;20468;-77
2023/01/24 07:41:31;;;;;;;6.05;3.97;;;4.20;96.70;;;;;;4953603;28;20078;-76
2023/01/24 07:44:05;;;;;;;5.95;4.55;;;4.30;96.70;;;;;;4961592;28;20386;-76
2023/01/24 07:46:36;;;;;;;7.30;4.07;;;4.30;96.70;;;;;;4959903;28;20071;-83
2023/01/24 07:49:05;;;;;;;5.82;3.60;;;4.40;96.70;;;;;;4977753;28;20047;-76
2023/01/24 07:51:33;;;;;;;5.85;3.50;;;4.50;96.70;;;;;;4956545;28;20045;-77
2023/01/24 07:54:01;;;;;;;7.47;4.32;;;4.50;96.70;;;;;;4963172;28;20461;-79
2023/01/24 07:56:30;;;;;;;8.15;4.72;;;4.60;96.70;;;;;;4956819;28;20047;-77
2023/01/24 07:58:58;;;;;;;6.85;4.95;;;4.50;96.70;;;;;;4955111;28;20045;-76
2023/01/24 08:01:27;;;;;;;8.75;4.70;;;4.60;96.70;;;;;;4956583;28;20043;-80
2023/01/24 08:03:57;;;;;;;8.70;4.43;;;4.70;96.70;;;;;;4956648;28;20047;-77
2023/01/24 08:06:25;;;;;;;7.25;4.07;;;4.70;96.70;;;;;;4979139;28;20109;-75
2023/01/24 08:08:53;;;;;;;8.45;4.75;;;4.80;96.70;;;;;;4957674;28;20039;-76
2023/01/24 08:11:22;;;;;;;8.70;4.53;;;4.90;96.70;;;;;;4962254;28;20540;-77
2023/01/24 08:13:50;;;;;;;11.18;4.40;;;4.90;96.70;;;;;;4950962;28;20071;-75
2023/01/24 08:16:23;;;;;;;11.27;5.07;;;4.90;96.70;;;;;;4945457;28;20053;-77
2023/01/24 08:18:51;;;;;;;10.20;5.10;;;5.00;96.70;;;;;;4961419;28;20046;-77
2023/01/24 08:21:21;;;;;;;11.90;6.57;;;5.00;96.70;;;;;;4956212;28;20135;-77
2023/01/24 08:23:49;;;;;;;15.98;7.07;;;5.10;96.70;;;;;;4954148;28;20054;-78
2023/01/24 08:26:17;;;;;;;15.18;6.22;;;5.20;96.70;;;;;;4967217;28;20039;-76
2023/01/24 08:28:47;;;;;;;15.35;6.55;;;5.20;96.70;;;;;;4962849;28;20102;-77
2023/01/24 08:31:15;;;;;;;10.90;6.50;;;5.30;96.70;;;;;;4954290;28;20047;-78
2023/01/24 08:33:45;;;;;;;15.20;7.03;;;5.30;96.70;;;;;;4953637;28;20055;-79
2023/01/24 08:36:13;;;;;;;19.38;7.25;;;5.40;96.70;;;;;;4941507;28;20051;-77
2023/01/24 08:38:44;;;;;;;16.15;7.18;;;5.40;96.70;;;;;;4963391;28;20050;-79
2023/01/24 08:41:14;;;;;;;12.90;6.70;;;5.50;96.70;;;;;;4964896;28;20125;-80
2023/01/24 08:43:42;;;;;;;15.60;6.82;;;5.60;96.70;;;;;;4966855;28;20050;-79
2023/01/24 08:46:12;;;;;;;17.77;6.97;;;5.70;96.70;;;;;;4956981;28;20046;-80
2023/01/24 08:48:40;;;;;;;17.83;7.40;;;5.70;96.70;;;;;;4960134;28;20053;-78
2023/01/24 08:51:10;;;;;;;16.30;8.82;;;5.80;96.70;;;;;;4964416;28;20038;-78
2023/01/24 08:53:39;;;;;;;20.33;8.38;;;5.80;96.70;;;;;;4956983;28;20082;-79
2023/01/24 08:56:11;;;;;;;11.90;6.40;;;5.90;96.70;;;;;;4961089;28;20043;-78
2023/01/24 08:58:40;;;;;;;11.50;6.43;;;6.00;96.70;;;;;;4943980;28;20074;-77
2023/01/24 09:01:10;;;;;;;9.48;5.03;;;6.10;96.70;;;;;;4944810;28;20051;-78
2023/01/24 09:03:40;;;;;;;8.27;4.68;;;6.20;96.70;;;;;;4953976;28;20078;-78
2023/01/24 09:06:09;;;;;;;9.50;5.53;;;6.30;96.70;;;;;;4962652;28;20043;-78
2023/01/24 09:08:38;;;;;;;9.07;4.68;;;6.40;96.70;;;;;;4947786;28;20054;-80
2023/01/24 09:11:06;;;;;;;10.27;4.60;;;6.50;96.70;;;;;;4965826;28;20528;-81
2023/01/24 09:13:36;;;;;;;7.68;3.92;;;6.60;96.70;;;;;;4975604;28;20150;-80
2023/01/24 09:16:04;;;;;;;6.88;4.28;;;6.80;96.70;;;;;;4960835;28;20054;-78
2023/01/24 09:18:33;;;;;;;8.13;4.18;;;6.90;96.70;;;;;;4952787;28;20481;-80
2023/01/24 09:21:02;;;;;;;7.30;4.28;;;7.00;96.70;;;;;;4960179;28;20520;-76
2023/01/24 09:23:31;;;;;;;6.60;4.30;;;7.10;96.70;;;;;;4962740;28;20543;-78
2023/01/24 09:25:59;;;;;;;6.32;3.40;;;7.30;96.70;;;;;;4972312;28;20044;-79
2023/01/24 09:28:27;;;;;;;6.60;3.28;;;7.40;96.70;;;;;;4964032;28;20042;-80
2023/01/24 09:30:57;;;;;;;4.90;3.30;;;7.50;96.70;;;;;;4964790;28;20047;-76
2023/01/24 09:33:27;;;;;;;4.75;3.42;;;7.60;96.70;;;;;;4947176;28;20043;-78
2023/01/24 09:36:02;;;;;;;4.10;2.90;;;7.70;96.70;;;;;;4952679;28;20035;-77
2023/01/24 09:38:32;;;;;;;6.25;3.15;;;7.80;96.70;;;;;;4953562;28;20039;-77
2023/01/24 09:41:08;;;;;;;3.60;2.50;;;7.90;96.70;;;;;;4945905;28;20057;-77
2023/01/24 09:43:45;;;;;;;5.00;3.55;;;8.00;96.70;;;;;;4960204;28;20919;-77
2023/01/24 09:46:20;;;;;;;;;;;8.10;96.70;;;;;;4960972;28;20141;-76
2023/01/24 09:48:54;;;;;;;5.82;3.80;;;8.20;96.70;;;;;;4940446;28;19926;-83
2023/01/24 09:51:27;;;;;;;6.93;4.35;;;8.40;96.70;;;;;;4945532;28;20697;-80
2023/01/24 09:53:59;;;;;;;6.50;4.03;;;8.50;96.70;;;;;;4963833;28;20061;-77
2023/01/24 09:56:34;;;;;;;5.93;3.45;;;8.60;96.70;;;;;;4952928;28;20043;-77
2023/01/24 09:59:17;;;;;;;3.80;3.03;;;8.70;96.70;;;;;;4964133;28;20140;-79
2023/01/24 10:01:49;;;;;;;4.03;3.03;;;8.80;96.70;;;;;;4958116;28;20051;-79
2023/01/24 10:04:21;;;;;;;3.65;2.28;;;8.90;96.70;;;;;;4951856;28;20331;-77
2023/01/24 10:07:27;;;;;;;5.00;2.30;;;9.00;96.70;;;;;;4951209;28;20055;-77
2023/01/24 10:10:05;;;;;;;4.38;3.08;;;9.10;96.70;;;;;;4948873;28;20129;-77
2023/01/24 10:12:47;;;;;;;5.20;3.05;;;9.40;96.70;;;;;;4941596;28;20149;-78
2023/01/24 10:15:30;;;;;;;4.68;3.20;;;9.50;96.70;;;;;;4947975;28;20083;-78
2023/01/24 10:18:22;;;;;;;2.65;2.03;;;9.50;96.70;;;;;;4963115;28;20064;-76
2023/01/24 10:21:09;;;;;;;2.10;1.13;;;9.50;96.70;;;;;;4965209;28;20050;-76
2023/01/24 10:23:41;;;;;;;0.80;0.40;;;9.50;96.70;;;;;;4953689;28;20055;-76
2023/01/24 10:26:18;;;;;;;4.63;0.88;;;9.50;96.70;;;;;;4950534;28;20042;-76
2023/01/24 10:28:50;;;;;;;1.33;0.55;;;9.50;96.70;;;;;;4965529;28;20070;-76
2023/01/24 10:31:23;;;;;;;1.42;0.38;;;9.40;96.70;;;;;;4949746;28;20078;-79
2023/01/24 10:33:57;;;;;;;0.95;0.55;;;9.40;96.70;;;;;;4981457;28;20481;-78
2023/01/24 10:36:37;;;;;;;0.95;0.43;;;9.40;96.70;;;;;;4961516;28;20059;-78
2023/01/24 10:39:06;;;;;;;1.17;0.50;;;9.40;96.70;;;;;;4955135;28;20125;-77
2023/01/24 10:41:34;;;;;;;0.82;0.50;;;9.40;96.70;;;;;;4967575;28;20125;-77
2023/01/24 10:44:08;;;;;;;1.10;0.30;;;9.50;96.70;;;;;;4964726;28;20150;-77
2023/01/24 10:47:02;;;;;;;1.17;0.30;;;9.60;96.70;;;;;;4958725;28;20090;-79
2023/01/24 10:49:36;;;;;;;0.80;0.50;;;9.80;96.70;;;;;;4964253;28;20147;-78
2023/01/24 10:52:11;;;;;;;2.05;0.50;;;9.90;96.70;;;;;;4972686;28;20739;-78
2023/01/24 10:54:48;;;;;;;1.17;0.45;;;10.00;96.70;;;;;;4971277;28;20576;-78
2023/01/24 10:57:37;;;;;;;1.05;0.50;;;10.10;96.70;;;;;;4949451;28;20077;-78
2023/01/24 11:00:29;;;;;;;0.75;0.38;;;10.20;96.70;;;;;;4955600;28;20046;-78
2023/01/24 11:03:00;;;;;;;1.40;0.30;;;10.30;96.70;;;;;;4963769;28;20450;-79
2023/01/24 11:05:39;;;;;;;0.80;0.20;;;10.60;96.70;;;;;;4956141;28;20059;-78
2023/01/24 11:08:23;;;;;;;1.30;0.65;;;10.70;96.70;;;;;;4956494;28;20059;-78
2023/01/24 11:10:53;;;;;;;0.80;0.43;;;10.90;96.70;;;;;;4950934;28;20051;-78
2023/01/24 11:13:33;;;;;;;0.50;0.20;;;11.00;96.70;;;;;;4956354;28;20059;-77
2023/01/24 11:16:05;;;;;;;0.73;0.30;;;11.10;96.70;;;;;;4939497;28;20480;-76
2023/01/24 11:18:36;;;;;;;0.68;0.20;;;11.20;96.70;;;;;;4946893;28;20097;-78
2023/01/24 11:21:08;;;;;;;0.50;0.47;;;11.30;96.70;;;;;;4946827;28;20067;-79
2023/01/24 11:23:37;;;;;;;0.60;0.28;;;11.30;96.70;;;;;;4963346;28;20420;-79
2023/01/24 11:26:19;;;;;;;0.93;0.35;;;11.30;96.70;;;;;;4965882;28;20066;-78
2023/01/24 11:28:56;;;;;;;2.72;0.47;;;11.30;96.70;;;;;;4949787;28;20130;-80
2023/01/24 11:31:32;;;;;;;1.13;0.50;;;11.40;96.70;;;;;;4956821;28;20047;-79
2023/01/24 11:34:23;;;;;;;;;;;11.60;96.70;;;;;;4971138;28;20051;-79
2023/01/24 11:37:04;;;;;;;1.10;0.40;;;11.70;96.70;;;;;;4961235;28;19926;-79
2023/01/24 11:39:43;;;;;;;0.40;0.30;;;11.80;96.70;;;;;;4955779;28;20134;-79
2023/01/24 11:42:19;;;;;;;1.27;0.40;;;11.90;96.70;;;;;;4961526;28;20655;-79
2023/01/24 11:45:14;;;;;;;0.98;0.32;;;11.90;96.70;;;;;;4961321;28;20062;-78
2023/01/24 11:47:50;;;;;;;1.58;0.40;;;12.00;96.70;;;;;;4957612;28;20039;-79
2023/01/24 11:50:31;;;;;;;0.85;0.30;;;12.10;96.70;;;;;;4960941;28;20047;-79
2023/01/24 11:53:21;;;;;;;0.68;0.20;;;12.30;96.70;;;;;;4960621;28;20075;-79
2023/01/24 11:56:01;;;;;;;1.38;0.30;;;12.30;96.70;;;;;;4973553;28;20086;-78
2023/01/24 11:58:44;;;;;;;0.85;0.43;;;12.30;96.70;;;;;;4958637;28;20055;-79
2023/01/24 12:01:21;;;;;;;0.50;0.40;;;12.30;96.70;;;;;;4955740;28;20051;-79
2023/01/24 12:04:16;;;;;;;0.38;0.17;;;12.30;96.70;;;;;;4960469;28;20066;-79
2023/01/24 12:06:50;;;;;;;1.58;0.25;;;12.40;96.70;;;;;;4944727;28;20113;-77
2023/01/24 12:09:22;;;;;;;0.55;0.25;;;12.40;96.70;;;;;;4947375;28;20054;-78
2023/01/24 12:12:08;;;;;;;3.08;0.20;;;12.60;96.70;;;;;;4958455;28;20122;-79
2023/01/24 12:15:05;;;;;;;1.13;0.20;;;12.70;96.70;;;;;;4955883;28;20055;-80
2023/01/24 12:18:00;;;;;;;0.50;0.30;;;12.70;96.70;;;;;;4956892;28;20046;-79
2023/01/24 12:20:53;;;;;;;1.55;0.25;;;12.80;96.70;;;;;;4955473;28;20047;-79
2023/01/24 12:23:27;;;;;;;0.68;0.30;;;13.00;96.70;;;;;;4955928;28;20063;-79
2023/01/24 12:26:07;;;;;;;1.67;0.60;;;13.10;96.70;;;;;;4962508;28;20169;-79
2023/01/24 12:29:03;;;;;;;0.55;0.30;;;13.20;96.70;;;;;;4956661;28;20070;-79
2023/01/24 12:31:42;;;;;;;0.50;0.20;;;13.20;96.70;;;;;;4946413;28;20621;-79
2023/01/24 12:34:26;;;;;;;2.20;0.57;;;13.30;96.70;;;;;;4947609;28;20555;-75
2023/01/24 12:36:59;;;;;;;0.28;0.17;;;13.30;96.70;;;;;;4964384;28;20070;-75
2023/01/24 12:39:35;;;;;;;0.70;0.20;;;13.30;96.70;;;;;;4962670;28;20334;-75
2023/01/24 12:42:13;;;;;;;0.10;0.03;;;13.30;96.70;;;;;;4956098;28;20122;-74
2023/01/24 12:44:48;;;;;;;0.20;0.10;;;13.30;96.70;;;;;;4964432;28;20047;-74
2023/01/24 12:47:35;;;;;;;0.73;0.20;;;13.30;96.70;;;;;;4962956;28;20476;-74
2023/01/24 12:50:18;;;;;;;0.40;0.10;;;13.30;96.70;;;;;;4970930;28;20149;-75
2023/01/24 12:52:58;;;;;;;0.43;0.20;;;13.40;96.70;;;;;;4955608;28;20086;-74
2023/01/24 12:55:31;;;;;;;1.10;0.40;;;13.40;96.70;;;;;;4945521;28;20701;-74
2023/01/24 12:58:08;;;;;;;1.17;0.30;;;13.50;96.70;;;;;;4970944;28;20528;-74
2023/01/24 13:00:48;;;;;;;1.00;0.52;;;13.50;96.70;;;;;;4962087;28;20576;-75
2023/01/24 13:03:39;;;;;;;6.15;2.80;;;13.40;96.70;;;;;;4948517;28;20058;-74
2023/01/24 13:06:17;;;;;;;2.47;1.40;;;13.30;96.70;;;;;;4947644;28;20046;-74
2023/01/24 13:08:57;;;;;;;1.73;1.10;;;13.30;96.70;;;;;;4978200;28;20054;-75
2023/01/24 13:11:29;;;;;;;1.38;0.63;;;13.40;96.70;;;;;;4963728;28;20039;-74
2023/01/24 13:14:14;;;;;;;1.23;0.40;;;13.30;96.70;;;;;;4962224;28;20142;-75
2023/01/24 13:17:19;;;;;;;1.13;0.40;;;13.40;96.70;;;;;;4962618;28;20097;-74
2023/01/24 13:20:07;;;;;;;1.67;0.50;;;13.40;96.70;;;;;;4962745;28;20047;-75
2023/01/24 13:22:53;;;;;;;1.25;0.20;;;13.50;96.70;;;;;;4952424;28;20051;-74
2023/01/24 13:25:35;;;;;;;2.70;0.93;;;13.50;96.70;;;;;;4946579;28;20106;-75
2023/01/24 13:28:11;;;;;;;1.40;0.55;;;13.50;96.70;;;;;;4964241;28;20094;-74
2023/01/24 13:30:53;;;;;;;1.80;0.50;;;13.50;96.70;;;;;;4961483;28;20047;-75
2023/01/24 13:33:32;;;;;;;1.67;0.70;;;13.50;96.70;;;;;;4950593;28;20610;-74
2023/01/24 13:36:05;;;;;;;1.67;0.40;;;13.50;96.70;;;;;;4966389;28;20070;-74
2023/01/24 13:38:40;;;;;;;1.65;0.45;;;13.50;96.70;;;;;;4965583;28;20047;-73
2023/01/24 13:41:15;;;;;;;0.60;0.40;;;13.60;96.70;;;;;;4965854;28;20050;-74
2023/01/24 13:44:24;;;;;;;1.10;0.20;;;13.70;96.70;;;;;;4952216;28;20047;-74
2023/01/24 13:47:02;;;;;;;0.80;0.40;;;13.80;96.70;;;;;;4950746;28;20129;-75
2023/01/24 13:50:07;;;;;;;1.60;0.73;;;13.90;96.70;;;;;;4965746;28;20137;-75
2023/01/24 13:52:38;;;;;;;2.35;0.50;;;13.90;96.70;;;;;;4969085;28;20057;-75
2023/01/24 13:55:39;;;;;;;1.60;0.40;;;13.80;96.70;;;;;;4951150;28;20565;-74
2023/01/24 13:58:22;;;;;;;0.57;0.30;;;13.70;96.70;;;;;;4959219;28;20531;-75
2023/01/24 14:00:52;;;;;;;0.82;0.30;;;13.70;96.70;;;;;;4976449;28;20062;-75
2023/01/24 14:03:27;;;;;;;0.38;0.28;;;13.80;96.70;;;;;;4966307;28;20080;-74
2023/01/24 14:06:04;;;;;;;0.70;0.32;;;13.70;96.70;;;;;;4958631;28;20043;-75
2023/01/24 14:09:01;;;;;;;2.45;0.35;;;13.60;96.70;;;;;;4956941;28;20078;-75